createdAt,value
2023-02-05T00:00:10.277Z,10.93
2023-02-05T00:02:41.309Z,11.23
2023-02-05T00:05:09.641Z,12.47
2023-02-05T00:07:37.444Z,7.87
2023-02-05T00:10:06.342Z,15.53
2023-02-05T00:12:34.136Z,15.67
2023-02-05T00:15:02.268Z,12.77
2023-02-05T00:17:30.434Z,16.23
2023-02-05T00:20:02.310Z,13.27
2023-02-05T00:22:30.413Z,13.17
2023-02-05T00:24:58.583Z,19.27
2023-02-05T00:27:26.498Z,16.80
2023-02-05T00:29:54.498Z,15.00
2023-02-05T00:32:22.634Z,15.03
2023-02-05T00:34:51.446Z,9.43
2023-02-05T00:37:19.145Z,12.40
2023-02-05T00:39:47.235Z,11.43
2023-02-05T00:42:15.233Z,11.50
2023-02-05T00:44:43.663Z,10.57
2023-02-05T00:47:15.060Z,9.80
2023-02-05T00:49:42.670Z,10.17
2023-02-05T00:52:10.753Z,9.03
2023-02-05T00:54:38.376Z,11.40
2023-02-05T00:57:06.220Z,9.57
2023-02-05T00:59:34.321Z,7.37
2023-02-05T01:02:02.303Z,13.17
2023-02-05T01:04:30.285Z,9.57
2023-02-05T01:06:57.885Z,7.13
2023-02-05T01:09:26.333Z,6.00
2023-02-05T01:11:54.333Z,9.57
2023-02-05T01:14:31.692Z,9.03
2023-02-05T01:16:59.714Z,5.97
2023-02-05T01:19:27.398Z,9.03
2023-02-05T01:21:55.978Z,9.23
2023-02-05T01:24:24.061Z,11.27
2023-02-05T01:26:53.637Z,8.27
2023-02-05T01:29:21.669Z,10.67
2023-02-05T01:31:50.298Z,6.27
2023-02-05T01:34:18.257Z,11.30
2023-02-05T01:36:46.322Z,8.17
2023-02-05T01:39:14.673Z,9.07
2023-02-05T01:41:44.687Z,7.70
2023-02-05T01:44:12.281Z,6.43
2023-02-05T01:47:01.644Z,8.07
2023-02-05T01:49:34.368Z,7.03
2023-02-05T01:52:04.234Z,3.60
2023-02-05T01:54:31.553Z,6.70
2023-02-05T01:57:03.338Z,5.63
2023-02-05T01:59:32.306Z,6.27
2023-02-05T02:01:59.974Z,5.63
2023-02-05T02:04:48.763Z,5.17
2023-02-05T02:07:19.790Z,8.37
2023-02-05T02:09:47.559Z,6.37
2023-02-05T02:12:23.908Z,3.13
2023-02-05T02:14:54.010Z,8.02
2023-02-05T02:17:21.707Z,7.17
2023-02-05T02:20:01.952Z,6.50
2023-02-05T02:22:58.708Z,5.60
2023-02-05T02:25:34.481Z,5.87
2023-02-05T02:28:07.672Z,4.93
2023-02-05T02:30:43.490Z,9.10
2023-02-05T02:33:27.426Z,4.13
2023-02-05T02:36:06.581Z,2.67
2023-02-05T02:38:37.660Z,7.10
2023-02-05T02:41:29.191Z,4.77
2023-02-05T02:43:59.549Z,7.33
2023-02-05T02:46:32.737Z,5.03
2023-02-05T02:49:02.378Z,9.00
2023-02-05T02:51:30.568Z,5.63
2023-02-05T02:53:58.225Z,5.03
2023-02-05T02:56:26.465Z,5.00
2023-02-05T02:59:08.909Z,6.00
2023-02-05T03:01:37.192Z,2.83
2023-02-05T03:04:10.394Z,5.03
2023-02-05T03:06:43.073Z,5.13
2023-02-05T03:09:19.056Z,5.93
2023-02-05T03:11:47.157Z,5.40
2023-02-05T03:14:15.228Z,8.87
2023-02-05T03:16:42.964Z,10.37
2023-02-05T03:19:10.576Z,5.23
2023-02-05T03:21:43.691Z,8.20
2023-02-05T03:24:10.848Z,7.13
2023-02-05T03:26:42.260Z,7.07
2023-02-05T03:29:14.459Z,4.23
2023-02-05T03:32:14.274Z,4.73
2023-02-05T03:35:00.303Z,5.70
2023-02-05T03:37:56.009Z,4.20
2023-02-05T03:40:46.665Z,3.90
2023-02-05T03:43:32.965Z,4.37
2023-02-05T03:46:08.006Z,7.93
2023-02-05T03:49:15.004Z,3.40
2023-02-05T03:52:33.045Z,6.20
2023-02-05T03:55:12.194Z,5.77
2023-02-05T03:57:43.151Z,6.37
2023-02-05T04:00:12.413Z,4.57
2023-02-05T04:02:40.668Z,6.63
2023-02-05T04:05:11.577Z,8.13
2023-02-05T04:07:39.665Z,5.77
2023-02-05T04:10:08.481Z,3.93
2023-02-05T04:12:36.397Z,4.10
2023-02-05T04:15:05.379Z,3.10
2023-02-05T04:17:33.362Z,5.57
2023-02-05T04:20:01.426Z,3.80
2023-02-05T04:22:29.469Z,3.97
2023-02-05T04:24:58.656Z,2.93
2023-02-05T04:27:26.702Z,3.93
2023-02-05T04:29:54.841Z,6.57
2023-02-05T04:32:22.820Z,5.90
2023-02-05T04:34:51.205Z,4.17
2023-02-05T04:37:18.887Z,8.67
2023-02-05T04:39:47.255Z,6.67
2023-02-05T04:42:15.738Z,4.47
2023-02-05T04:44:43.477Z,5.17
2023-02-05T04:47:11.240Z,5.23
2023-02-05T04:49:40.839Z,3.23
2023-02-05T04:52:09.573Z,6.43
2023-02-05T04:54:39.076Z,8.57
2023-02-05T04:57:07.511Z,6.67
2023-02-05T04:59:35.601Z,8.23
2023-02-05T05:02:03.572Z,6.77
2023-02-05T05:04:31.698Z,6.27
2023-02-05T05:06:59.316Z,6.63
2023-02-05T05:09:27.591Z,6.20
2023-02-05T05:11:56.563Z,8.03
2023-02-05T05:14:24.644Z,7.30
2023-02-05T05:16:52.874Z,6.17
2023-02-05T05:19:21.422Z,5.50
2023-02-05T05:21:49.517Z,6.73
2023-02-05T05:24:39.424Z,6.07
2023-02-05T05:27:07.604Z,9.80
2023-02-05T05:29:35.642Z,4.90
2023-02-05T05:32:03.986Z,15.20
2023-02-05T05:34:32.167Z,6.60
2023-02-05T05:37:00.445Z,4.43
2023-02-05T05:39:47.019Z,5.70
2023-02-05T05:42:32.717Z,4.60
2023-02-05T05:45:00.609Z,4.67
2023-02-05T05:47:28.104Z,5.70
2023-02-05T05:49:56.358Z,7.87
2023-02-05T05:52:24.733Z,10.23
2023-02-05T05:54:52.311Z,7.23
2023-02-05T05:57:21.010Z,3.80
2023-02-05T05:59:48.954Z,4.47
2023-02-05T06:02:17.061Z,10.00
2023-02-05T06:04:44.785Z,3.57
2023-02-05T06:07:12.873Z,6.13
2023-02-05T06:09:40.797Z,3.30
2023-02-05T06:12:11.662Z,5.33
2023-02-05T06:14:39.874Z,4.07
2023-02-05T06:17:07.734Z,6.67
2023-02-05T06:19:36.097Z,7.10
2023-02-05T06:22:03.906Z,10.10
2023-02-05T06:24:31.925Z,5.67
2023-02-05T06:27:00.029Z,8.53
2023-02-05T06:29:28.029Z,6.43
2023-02-05T06:31:56.261Z,6.63
2023-02-05T06:34:24.282Z,5.73
2023-02-05T06:36:52.266Z,6.47
2023-02-05T06:39:25.059Z,15.53
2023-02-05T06:41:53.329Z,5.60
2023-02-05T06:44:20.932Z,11.43
2023-02-05T06:46:49.188Z,5.07
2023-02-05T06:49:16.360Z,7.93
2023-02-05T06:51:43.401Z,3.97
2023-02-05T06:54:11.733Z,6.47
2023-02-05T06:56:39.822Z,6.20
2023-02-05T06:59:07.673Z,4.00
2023-02-05T07:01:35.830Z,11.40
2023-02-05T07:04:04.046Z,7.27
2023-02-05T07:06:32.044Z,4.93
2023-02-05T07:08:59.631Z,8.27
2023-02-05T07:11:27.682Z,7.37
2023-02-05T07:13:55.850Z,5.60
2023-02-05T07:16:27.587Z,3.70
2023-02-05T07:18:55.629Z,5.20
2023-02-05T07:21:23.398Z,5.73
2023-02-05T07:23:51.669Z,6.17
2023-02-05T07:26:19.330Z,6.67
2023-02-05T07:28:47.265Z,5.03
2023-02-05T07:31:16.839Z,5.47
2023-02-05T07:33:44.512Z,7.53
2023-02-05T07:36:13.904Z,8.50
2023-02-05T07:38:41.571Z,6.50
2023-02-05T07:41:10.490Z,8.17
2023-02-05T07:43:38.453Z,6.27
2023-02-05T07:46:08.633Z,7.53
2023-02-05T07:48:36.386Z,8.00
2023-02-05T07:51:04.115Z,9.40
2023-02-05T07:53:31.904Z,10.33
2023-02-05T07:56:06.123Z,8.40
2023-02-05T07:58:34.030Z,9.17
2023-02-05T08:01:02.835Z,6.00
2023-02-05T08:03:30.604Z,5.73
2023-02-05T08:05:58.698Z,4.57
2023-02-05T08:08:27.032Z,4.87
2023-02-05T08:11:19.112Z,5.37
2023-02-05T08:13:46.417Z,11.13
2023-02-05T08:16:15.915Z,8.50
2023-02-05T08:18:43.830Z,6.90
2023-02-05T08:21:11.830Z,11.07
2023-02-05T08:23:40.197Z,6.77
2023-02-05T08:26:07.827Z,8.30
2023-02-05T08:28:35.679Z,9.30
2023-02-05T08:31:09.653Z,13.37
2023-02-05T08:33:40.839Z,13.80
2023-02-05T08:36:07.946Z,12.27
2023-02-05T08:38:36.126Z,10.17
2023-02-05T08:41:12.638Z,7.07
2023-02-05T08:43:44.133Z,8.00
2023-02-05T08:46:12.748Z,19.47
2023-02-05T08:48:41.135Z,28.20
2023-02-05T08:51:10.637Z,31.63
2023-02-05T08:53:38.686Z,30.30
2023-02-05T08:56:06.490Z,31.57
2023-02-05T08:58:34.447Z,25.37
2023-02-05T09:01:03.804Z,22.33
2023-02-05T09:03:32.085Z,20.17
2023-02-05T09:05:59.470Z,23.63
2023-02-05T09:08:30.418Z,18.20
2023-02-05T09:10:59.202Z,11.27
2023-02-05T09:13:27.077Z,11.50
2023-02-05T09:15:55.249Z,10.43
2023-02-05T09:18:23.580Z,2.33
2023-02-05T09:20:51.273Z,6.00
2023-02-05T09:23:19.341Z,4.93
2023-02-05T09:25:47.050Z,5.97
2023-02-05T09:28:14.643Z,9.87
2023-02-05T09:30:46.177Z,10.23
2023-02-05T09:33:14.490Z,13.40
2023-02-05T09:35:41.532Z,4.27
2023-02-05T09:38:09.389Z,6.20
2023-02-05T09:40:40.752Z,9.47
2023-02-05T09:43:19.748Z,10.83
2023-02-05T09:46:09.180Z,7.40
2023-02-05T09:48:49.317Z,12.87
2023-02-05T09:51:22.046Z,18.60
2023-02-05T09:53:53.229Z,11.13
2023-02-05T09:56:21.228Z,8.97
2023-02-05T09:58:50.146Z,8.93
2023-02-05T10:01:22.062Z,3.50
2023-02-05T10:04:09.568Z,7.73
2023-02-05T10:09:30.229Z,3.47
2023-02-05T10:12:06.057Z,3.77
2023-02-05T10:14:54.519Z,3.90
2023-02-05T10:17:29.461Z,5.50
2023-02-05T10:20:08.603Z,2.03
2023-02-05T10:22:50.730Z,6.10
2023-02-05T10:25:37.361Z,7.40
2023-02-05T10:28:19.415Z,4.40
2023-02-05T10:30:52.606Z,4.10
2023-02-05T10:33:25.618Z,7.40
2023-02-05T10:36:00.438Z,4.87
2023-02-05T10:38:30.016Z,8.33
2023-02-05T10:41:17.455Z,8.33
2023-02-05T10:44:03.772Z,9.90
2023-02-05T10:46:33.420Z,3.77
2023-02-05T10:49:06.197Z,5.30
2023-02-05T10:52:40.992Z,6.27
2023-02-05T11:03:06.118Z,4.90
2023-02-05T11:05:38.018Z,3.17
2023-02-05T11:08:05.235Z,6.53
2023-02-05T11:10:34.289Z,5.30
2023-02-05T11:13:20.831Z,5.67
2023-02-05T11:16:08.308Z,4.53
2023-02-05T11:21:13.120Z,3.13
2023-02-05T11:23:41.047Z,7.77
2023-02-05T11:26:20.660Z,6.50
2023-02-05T11:39:43.043Z,9.80
2023-02-05T11:42:33.436Z,6.57
2023-02-05T11:47:58.768Z,9.73
2023-02-05T11:50:28.814Z,14.37
2023-02-05T11:53:33.839Z,13.93
2023-02-05T12:02:35.058Z,3.33
2023-02-05T12:05:12.577Z,4.93
2023-02-05T12:07:48.277Z,5.57
2023-02-05T12:10:41.951Z,4.10
2023-02-05T12:14:08.954Z,4.37
2023-02-05T12:16:46.321Z,6.30
2023-02-05T12:19:19.897Z,6.10
2023-02-05T12:21:51.363Z,7.67
2023-02-05T12:25:00.726Z,6.87
2023-02-05T12:27:37.594Z,6.50
2023-02-05T12:39:54.535Z,6.27
2023-02-05T12:43:04.827Z,10.50
2023-02-05T12:45:53.743Z,8.93
2023-02-05T12:48:40.836Z,6.57
2023-02-05T12:52:04.114Z,9.57
2023-02-05T12:54:53.055Z,5.93
2023-02-05T12:57:24.089Z,7.87
2023-02-05T13:04:10.453Z,6.27
2023-02-05T13:06:47.183Z,5.23
2023-02-05T13:10:28.548Z,4.47
2023-02-05T13:13:11.745Z,6.73
2023-02-05T13:15:43.225Z,6.10
2023-02-05T13:18:23.115Z,5.37
2023-02-05T13:21:12.340Z,4.90
2023-02-05T13:23:58.578Z,7.53
2023-02-05T13:33:16.275Z,18.40
2023-02-05T13:35:59.680Z,16.43
2023-02-05T13:42:46.062Z,44.83
2023-02-05T13:56:33.131Z,8.67
2023-02-05T14:16:01.064Z,4.07
2023-02-05T14:22:21.685Z,5.30
2023-02-05T14:24:49.826Z,6.47
2023-02-05T14:31:39.777Z,5.27
2023-02-05T14:35:02.495Z,10.47
2023-02-05T14:38:18.896Z,6.23
2023-02-05T14:40:46.030Z,5.33
2023-02-05T14:50:27.852Z,4.37
2023-02-05T14:53:32.410Z,3.50
2023-02-05T14:56:19.034Z,5.10
2023-02-05T14:58:46.724Z,7.50
2023-02-05T15:05:56.888Z,4.82
2023-02-05T15:08:35.300Z,5.40
2023-02-05T15:11:39.832Z,8.23
2023-02-05T15:14:18.831Z,6.90
2023-02-05T15:30:23.571Z,11.63
2023-02-05T15:37:24.384Z,6.53
2023-02-05T15:47:08.129Z,6.43
2023-02-05T15:49:37.792Z,5.17
2023-02-05T16:03:11.716Z,8.07
2023-02-05T16:05:57.965Z,6.73
2023-02-05T16:08:44.395Z,7.23
2023-02-05T16:11:12.379Z,8.10
2023-02-05T16:13:42.306Z,6.40
2023-02-05T16:16:12.895Z,7.60
2023-02-05T16:18:52.109Z,5.43
2023-02-05T16:21:46.291Z,8.70
2023-02-05T16:24:36.599Z,9.63
2023-02-05T16:28:03.133Z,5.07
2023-02-05T16:31:07.976Z,5.83
2023-02-05T16:33:44.464Z,6.77
2023-02-05T16:36:23.904Z,6.25
2023-02-05T16:39:04.957Z,10.57
2023-02-05T16:42:06.029Z,4.80
2023-02-05T16:44:38.608Z,10.20
2023-02-05T16:47:28.168Z,9.93
2023-02-05T16:49:56.606Z,7.63
2023-02-05T16:52:34.541Z,6.77
2023-02-05T16:55:27.520Z,10.17
2023-02-05T16:57:55.899Z,6.87
2023-02-05T17:00:29.537Z,4.17
2023-02-05T17:02:58.183Z,6.87
2023-02-05T17:05:26.220Z,8.97
2023-02-05T17:08:37.025Z,7.80
2023-02-05T17:11:06.964Z,10.10
2023-02-05T17:13:40.656Z,12.33
2023-02-05T17:16:29.976Z,9.63
2023-02-05T17:19:20.021Z,8.10
2023-02-05T17:21:48.250Z,10.07
2023-02-05T17:24:16.240Z,9.10
2023-02-05T17:26:43.172Z,16.33
2023-02-05T17:29:15.195Z,19.07
2023-02-05T17:31:42.845Z,18.27
2023-02-05T17:34:11.362Z,21.10
2023-02-05T17:36:38.977Z,27.73
2023-02-05T17:39:06.790Z,19.67
2023-02-05T17:41:55.414Z,20.67
2023-02-05T17:44:23.094Z,7.03
2023-02-05T17:46:50.604Z,10.63
2023-02-05T17:49:18.524Z,13.83
2023-02-05T17:51:46.120Z,14.07
2023-02-05T17:54:36.853Z,14.33
2023-02-05T17:57:20.326Z,14.63
2023-02-05T17:59:48.525Z,14.67
2023-02-05T18:02:15.594Z,13.63
2023-02-05T18:04:47.432Z,12.00
2023-02-05T18:07:25.642Z,11.03
2023-02-05T18:10:02.451Z,12.13
2023-02-05T18:12:30.553Z,9.93
2023-02-05T18:14:58.716Z,9.63
2023-02-05T18:17:27.008Z,12.40
2023-02-05T18:19:58.021Z,11.90
2023-02-05T18:22:25.703Z,10.40
2023-02-05T18:24:53.908Z,11.87
2023-02-05T18:27:22.085Z,12.07
2023-02-05T18:29:53.256Z,11.00
2023-02-05T18:32:20.874Z,10.53
2023-02-05T18:34:48.670Z,10.00
2023-02-05T18:37:16.839Z,9.30
2023-02-05T18:39:45.840Z,10.83
2023-02-05T18:42:13.990Z,8.20
2023-02-05T18:44:41.847Z,11.17
2023-02-05T18:47:10.267Z,6.40
2023-02-05T18:49:37.844Z,7.40
2023-02-05T18:52:06.418Z,16.43
2023-02-05T18:54:34.380Z,14.93
2023-02-05T18:57:02.810Z,11.50
2023-02-05T18:59:30.530Z,9.57
2023-02-05T19:01:58.889Z,10.07
2023-02-05T19:04:28.006Z,7.83
2023-02-05T19:06:55.729Z,8.67
2023-02-05T19:09:24.851Z,8.60
2023-02-05T19:11:53.286Z,8.50
2023-02-05T19:14:22.147Z,8.23
2023-02-05T19:16:51.552Z,13.20
2023-02-05T19:19:23.592Z,6.10
2023-02-05T19:21:55.298Z,9.00
2023-02-05T19:24:22.677Z,10.20
2023-02-05T19:26:51.006Z,8.20
2023-02-05T19:29:19.876Z,10.57
2023-02-05T19:31:48.939Z,11.90
2023-02-05T19:34:16.847Z,7.33
2023-02-05T19:36:44.467Z,6.33
2023-02-05T19:39:12.487Z,12.17
2023-02-05T19:41:40.346Z,11.23
2023-02-05T19:44:08.904Z,12.37
2023-02-05T19:46:38.037Z,11.73
2023-02-05T19:49:07.795Z,11.67
2023-02-05T19:51:35.617Z,13.47
2023-02-05T19:54:04.158Z,11.03
2023-02-05T19:56:35.609Z,14.77
2023-02-05T19:59:03.986Z,18.63
2023-02-05T20:01:33.430Z,14.77
2023-02-05T20:04:05.638Z,9.53
2023-02-05T20:06:33.696Z,9.63
2023-02-05T20:17:03.649Z,11.63
2023-02-05T20:19:32.444Z,15.10
2023-02-05T20:24:42.950Z,9.73
2023-02-05T20:27:20.793Z,9.43
2023-02-05T20:30:10.631Z,18.30
2023-02-05T20:32:39.387Z,12.10
2023-02-05T20:35:09.526Z,11.33
2023-02-05T20:37:59.868Z,11.70
2023-02-05T20:40:51.142Z,10.07
2023-02-05T20:43:23.789Z,16.57
2023-02-05T20:45:53.616Z,13.43
2023-02-05T20:48:22.018Z,13.23
2023-02-05T20:50:53.594Z,13.80
2023-02-05T20:53:22.975Z,11.03
2023-02-05T20:55:57.214Z,10.50
2023-02-05T20:58:26.634Z,10.47
2023-02-05T21:00:54.866Z,13.27
2023-02-05T21:03:22.992Z,11.27
2023-02-05T21:05:50.816Z,14.40
2023-02-05T21:08:18.597Z,8.33
2023-02-05T21:10:52.699Z,10.83
2023-02-05T21:13:20.874Z,10.17
2023-02-05T21:15:55.216Z,10.67
2023-02-05T21:18:23.460Z,12.63
2023-02-05T21:20:50.863Z,10.73
2023-02-05T21:23:19.138Z,10.57
2023-02-05T21:25:47.473Z,10.53
2023-02-05T21:28:18.809Z,9.77
2023-02-05T21:30:51.135Z,11.17
2023-02-05T21:33:19.628Z,10.43
2023-02-05T21:36:02.715Z,12.17
2023-02-05T21:38:32.025Z,13.60
2023-02-05T21:41:00.311Z,11.63
2023-02-05T21:43:31.507Z,10.67
2023-02-05T21:46:04.699Z,11.40
2023-02-05T21:48:33.239Z,15.00
2023-02-05T21:51:04.377Z,14.67
2023-02-05T21:53:32.170Z,13.20
2023-02-05T21:56:02.535Z,18.67
2023-02-05T21:58:38.183Z,15.70
2023-02-05T22:01:13.051Z,18.85
2023-02-05T22:03:42.127Z,9.93
2023-02-05T22:06:11.670Z,9.60
2023-02-05T22:11:31.332Z,14.47
2023-02-05T22:13:59.726Z,12.93
2023-02-05T22:16:33.141Z,9.20
2023-02-05T22:19:01.762Z,17.10
2023-02-05T22:21:50.928Z,12.07
2023-02-05T22:24:20.384Z,7.00
2023-02-05T22:26:59.686Z,10.00
2023-02-05T22:29:29.105Z,10.10
2023-02-05T22:31:59.967Z,8.13
2023-02-05T22:34:32.285Z,10.87
2023-02-05T22:37:00.924Z,11.03
2023-02-05T22:39:31.309Z,8.60
2023-02-05T22:42:00.124Z,10.30
2023-02-05T22:44:28.705Z,13.80
2023-02-05T22:46:57.515Z,15.50
2023-02-05T22:50:06.548Z,8.87
2023-02-05T22:52:37.793Z,11.07
2023-02-05T22:55:39.296Z,13.53
2023-02-05T22:58:30.081Z,10.97
2023-02-05T23:01:01.221Z,9.23
2023-02-05T23:03:54.403Z,9.87
2023-02-05T23:06:28.321Z,10.37
2023-02-05T23:09:13.358Z,14.33
2023-02-05T23:11:43.986Z,7.93
2023-02-05T23:14:20.154Z,9.97
2023-02-05T23:17:13.167Z,9.82
2023-02-05T23:19:51.556Z,10.63
2023-02-05T23:22:21.991Z,12.07
2023-02-05T23:25:15.618Z,11.23
2023-02-05T23:27:48.633Z,8.07
2023-02-05T23:31:10.318Z,11.17
2023-02-05T23:33:51.078Z,23.33
2023-02-05T23:36:29.365Z,17.60
2023-02-05T23:41:46.239Z,18.43
2023-02-05T23:44:12.876Z,16.57
2023-02-05T23:46:40.965Z,12.63
2023-02-05T23:49:13.199Z,14.60
2023-02-05T23:51:40.715Z,14.07
2023-02-05T23:54:12.332Z,11.63
2023-02-05T23:56:40.765Z,10.63
2023-02-05T23:59:12.497Z,11.43
